Time;durP1;ratioP1;P1;durP2;ratioP2;P2;SDS_P1;SDS_P2;PMS_P1;PMS_P2;Temp;Humidity;BMP_temperature;BMP_pressure;BME280_temperature;BME280_humidity;BME280_pressure;Samples;Min_cycle;Max_cycle;Signal;HPM_P1;HPM_P2
2021/06/30 00:01:15;;;;;;;4.82;1.73;;;;;;;17.27;100.00;97099.28;4979404;28;20051;-81
2021/06/30 00:03:42;;;;;;;5.78;1.65;;;;;;;17.20;100.00;97092.94;4978918;28;20126;-81
2021/06/30 00:06:09;;;;;;;7.30;1.60;;;;;;;17.17;100.00;97086.25;4944698;28;20069;-80
2021/06/30 00:08:36;;;;;;;6.63;1.70;;;;;;;17.11;100.00;97082.25;4960730;28;20047;-80
2021/06/30 00:11:08;;;;;;;2.65;1.38;;;;;;;17.14;100.00;97102.59;4976509;28;20042;-81
2021/06/30 00:13:39;;;;;;;2.33;1.25;;;;;;;17.06;100.00;97100.94;4976016;28;20047;-81
2021/06/30 00:16:10;;;;;;;2.60;1.45;;;;;;;17.06;100.00;97103.69;4978998;28;20046;-82
2021/06/30 00:18:43;;;;;;;3.20;1.80;;;;;;;17.02;100.00;97106.38;4961712;28;20376;-82
2021/06/30 00:21:15;;;;;;;8.68;1.92;;;;;;;17.04;100.00;97111.44;4980142;28;20049;-82
2021/06/30 00:23:46;;;;;;;7.53;1.50;;;;;;;17.02;100.00;97113.78;4964168;28;20082;-82
2021/06/30 00:26:19;;;;;;;5.25;1.67;;;;;;;17.00;100.00;97122.34;4981215;28;20046;-80
2021/06/30 00:28:45;;;;;;;6.38;1.70;;;;;;;16.98;100.00;97121.91;4989958;28;20055;-79
2021/06/30 00:31:18;;;;;;;4.75;1.67;;;;;;;16.95;100.00;97111.75;4973873;28;20047;-78
2021/06/30 00:33:49;;;;;;;4.78;1.80;;;;;;;16.92;100.00;97120.66;4989664;28;20055;-79
2021/06/30 00:36:16;;;;;;;5.25;1.52;;;;;;;16.92;100.00;97115.22;4980489;28;20039;-80
2021/06/30 00:38:48;;;;;;;4.55;1.45;;;;;;;16.93;100.00;97113.25;4964245;28;20039;-81
2021/06/30 00:41:20;;;;;;;3.78;1.55;;;;;;;16.90;100.00;97130.41;4964400;28;20081;-80
2021/06/30 00:43:51;;;;;;;5.80;1.80;;;;;;;16.79;100.00;97122.03;4982294;28;20043;-80
2021/06/30 00:46:33;;;;;;;10.20;1.80;;;;;;;16.81;100.00;97125.97;4983226;28;20443;-80
2021/06/30 00:49:08;;;;;;;3.85;1.83;;;;;;;16.78;100.00;97118.50;4981620;28;20416;-81
2021/06/30 00:51:35;;;;;;;5.28;1.88;;;;;;;16.77;100.00;97124.34;4980885;28;20042;-80
2021/06/30 00:54:07;;;;;;;4.53;1.98;;;;;;;16.69;100.00;97125.41;4977894;28;20046;-82
2021/06/30 00:56:34;;;;;;;5.88;2.20;;;;;;;16.66;100.00;97120.66;4978923;28;20209;-81
2021/06/30 00:59:05;;;;;;;5.03;1.70;;;;;;;16.65;100.00;97116.34;4962847;28;20551;-80
2021/06/30 01:01:37;;;;;;;9.40;2.08;;;;;;;16.62;100.00;97101.47;4980969;28;20416;-80
2021/06/30 01:04:09;;;;;;;6.72;1.90;;;;;;;16.63;100.00;97103.03;4981352;28;20071;-80
2021/06/30 01:06:43;;;;;;;4.38;1.80;;;;;;;16.63;100.00;97107.72;4957696;28;20309;-80
2021/06/30 01:09:10;;;;;;;4.22;2.10;;;;;;;16.63;100.00;97097.56;4974290;28;20615;-80
2021/06/30 01:11:42;;;;;;;4.60;1.80;;;;;;;16.62;100.00;97089.75;4977471;28;20047;-80
2021/06/30 01:14:09;;;;;;;5.88;1.90;;;;;;;16.60;100.00;97090.09;4959941;28;20584;-81
2021/06/30 01:16:40;;;;;;;4.30;2.08;;;;;;;16.57;100.00;97077.19;4961326;28;20043;-81
2021/06/30 01:19:08;;;;;;;5.50;2.03;;;;;;;16.56;100.00;97097.47;4981085;28;20075;-81
2021/06/30 01:21:39;;;;;;;3.72;2.10;;;;;;;16.53;100.00;97081.81;4977551;28;20061;-81
2021/06/30 01:24:11;;;;;;;5.97;1.83;;;;;;;16.55;100.00;97081.44;4975481;28;20435;-79
2021/06/30 01:26:46;;;;;;;2.50;1.92;;;;;;;16.51;100.00;97078.63;4976154;28;20047;-81
2021/06/30 01:29:21;;;;;;;5.65;2.03;;;;;;;16.54;100.00;97077.91;4977447;28;20531;-81
2021/06/30 01:31:53;;;;;;;5.70;2.20;;;;;;;16.47;100.00;97080.50;4980259;28;20046;-81
2021/06/30 01:34:25;;;;;;;4.70;2.00;;;;;;;16.45;100.00;97079.28;4981344;28;20049;-81
2021/06/30 01:36:54;;;;;;;5.78;2.38;;;;;;;16.45;100.00;97090.22;4977019;28;20097;-80
2021/06/30 01:39:23;;;;;;;9.30;2.22;;;;;;;16.40;100.00;97080.41;4979250;28;20076;-80
2021/06/30 01:41:50;;;;;;;5.85;2.50;;;;;;;16.39;100.00;97084.28;4962247;28;20050;-79
2021/06/30 01:44:21;;;;;;;4.43;2.20;;;;;;;16.41;100.00;97090.19;4962235;28;20061;-79
2021/06/30 01:46:53;;;;;;;4.28;2.03;;;;;;;16.40;100.00;97091.31;4980378;28;20054;-82
2021/06/30 01:49:24;;;;;;;4.72;2.10;;;;;;;16.41;100.00;97087.44;4981207;28;20047;-81
2021/06/30 01:51:56;;;;;;;7.25;2.03;;;;;;;16.40;100.00;97093.25;4981165;28;20050;-81
2021/06/30 01:54:29;;;;;;;2.72;2.30;;;;;;;16.38;100.00;97090.91;4979871;28;20066;-82
2021/06/30 01:56:55;;;;;;;8.82;2.40;;;;;;;16.35;100.00;97090.84;4980200;28;20047;-80
2021/06/30 01:59:28;;;;;;;6.63;2.47;;;;;;;16.38;100.00;97090.91;4980926;28;20046;-81
2021/06/30 02:01:54;;;;;;;6.32;2.45;;;;;;;16.31;100.00;97090.75;4980895;28;20423;-80
2021/06/30 02:04:25;;;;;;;6.38;2.10;;;;;;;16.32;100.00;97084.16;4963820;28;20121;-79
2021/06/30 02:06:57;;;;;;;2.60;1.85;;;;;;;16.35;100.00;97086.16;4962927;28;20035;-82
2021/06/30 02:09:28;;;;;;;4.50;2.08;;;;;;;16.30;100.00;97088.41;4979097;28;20401;-79
2021/06/30 02:12:00;;;;;;;5.78;2.03;;;;;;;16.32;100.00;97089.63;5035976;23;20057;-85
2021/06/30 02:14:32;;;;;;;5.22;2.33;;;;;;;16.19;100.00;97064.44;5033974;28;20404;-83
2021/06/30 02:17:03;;;;;;;4.55;2.25;;;;;;;16.26;100.00;97077.41;5033367;28;20041;-79
2021/06/30 02:19:35;;;;;;;2.28;1.98;;;;;;;16.35;100.00;97086.16;5040532;28;20048;-82
2021/06/30 02:22:06;;;;;;;5.05;2.28;;;;;;;16.33;100.00;97071.28;5020396;28;20040;-82
2021/06/30 02:24:37;;;;;;;9.10;2.60;;;;;;;16.27;100.00;97068.09;5063184;22;20020;-84
2021/06/30 02:27:10;;;;;;;4.97;2.35;;;;;;;16.25;100.00;97064.94;5001851;28;20232;-83
2021/06/30 02:29:42;;;;;;;4.68;2.20;;;;;;;16.30;100.00;97061.88;5002033;28;20041;-84
2021/06/30 02:32:14;;;;;;;7.28;2.60;;;;;;;16.28;100.00;97071.59;5001615;28;20096;-82
2021/06/30 02:34:41;;;;;;;6.35;2.50;;;;;;;16.29;100.00;97076.69;5027617;28;20045;-82
2021/06/30 02:37:13;;;;;;;3.85;2.65;;;;;;;16.29;100.00;97084.09;4964019;28;20046;-82
2021/06/30 02:39:44;;;;;;;9.10;2.25;;;;;;;16.23;100.00;97073.47;4997161;28;20128;-81
2021/06/30 02:42:16;;;;;;;3.28;2.60;;;;;;;16.24;100.00;97085.19;5000887;28;20061;-82
2021/06/30 02:44:43;;;;;;;7.68;2.40;;;;;;;16.23;100.00;97078.94;4978654;28;20124;-80
2021/06/30 02:47:09;;;;;;;6.40;2.38;;;;;;;16.27;100.00;97083.69;4995626;28;20514;-81
2021/06/30 02:49:41;;;;;;;5.82;2.25;;;;;;;16.24;100.00;97079.72;4978010;28;20564;-80
2021/06/30 02:52:12;;;;;;;5.72;2.88;;;;;;;16.25;100.00;97094.97;4977160;28;20073;-81
2021/06/30 02:54:38;;;;;;;5.78;2.50;;;;;;;16.28;100.00;97086.06;4976997;28;20046;-82
2021/06/30 02:57:06;;;;;;;6.35;2.30;;;;;;;16.26;100.00;97093.81;4995285;28;20046;-82
2021/06/30 02:59:32;;;;;;;4.68;2.53;;;;;;;16.26;100.00;97093.03;4995742;28;20089;-82
2021/06/30 03:02:04;;;;;;;5.47;2.30;;;;;;;16.23;100.00;97089.84;4977272;28;20050;-82
2021/06/30 03:04:42;;;;;;;5.80;2.50;;;;;;;16.29;100.00;97101.28;4976440;28;20050;-81
2021/06/30 03:07:17;;;;;;;4.07;2.10;;;;;;;16.18;100.00;97087.44;4978178;28;20035;-82
2021/06/30 03:09:47;;;;;;;8.55;2.58;;;;;;;16.27;100.00;97100.84;4976836;28;20433;-80
2021/06/30 03:12:21;;;;;;;4.63;2.40;;;;;;;16.30;100.00;97102.88;4975636;28;20744;-82
2021/06/30 03:14:48;;;;;;;8.05;2.30;;;;;;;16.31;100.00;97109.13;4976019;28;20315;-78
2021/06/30 03:17:19;;;;;;;5.05;2.50;;;;;;;16.24;100.00;97109.78;4974860;28;20046;-81
2021/06/30 03:19:58;;;;;;;5.65;2.65;;;;;;;16.24;100.00;97101.59;4982530;28;20115;-82
2021/06/30 03:22:42;;;;;;;5.95;2.63;;;;;;;16.28;100.00;97107.13;4992309;28;20129;-80
2021/06/30 03:25:28;;;;;;;6.00;2.60;;;;;;;16.26;100.00;97123.09;4993865;28;20045;-81
2021/06/30 03:28:08;;;;;;;6.38;2.60;;;;;;;16.30;100.00;97123.91;4988634;28;20520;-81
2021/06/30 03:30:36;;;;;;;3.47;2.65;;;;;;;16.31;100.00;97117.31;4978798;28;20046;-82
2021/06/30 03:33:08;;;;;;;6.43;2.38;;;;;;;16.36;100.00;97119.75;4989950;28;20044;-82
2021/06/30 03:35:42;;;;;;;5.60;2.17;;;;;;;16.42;100.00;97134.66;5005435;28;20038;-81
2021/06/30 03:38:17;;;;;;;5.18;2.13;;;;;;;16.45;100.00;97123.00;4986239;28;20038;-80
2021/06/30 03:40:44;;;;;;;5.78;1.98;;;;;;;16.44;100.00;97122.22;4991982;28;20413;-83
2021/06/30 03:43:18;;;;;;;4.93;2.42;;;;;;;16.46;100.00;97117.19;5011641;28;20060;-80
2021/06/30 03:45:50;;;;;;;8.75;2.53;;;;;;;16.52;100.00;97129.41;5008606;28;20228;-80
2021/06/30 03:48:22;;;;;;;4.75;2.50;;;;;;;16.50;100.00;97126.22;5000013;28;20129;-80
2021/06/30 03:50:51;;;;;;;5.55;2.47;;;;;;;16.50;100.00;97130.91;5000281;28;20042;-79
2021/06/30 03:53:22;;;;;;;6.93;2.60;;;;;;;16.45;100.00;97131.19;5011915;28;20061;-80
2021/06/30 03:55:51;;;;;;;7.18;3.00;;;;;;;16.39;100.00;97122.53;4984529;28;20054;-81
2021/06/30 03:58:22;;;;;;;7.20;2.72;;;;;;;16.53;100.00;97131.00;4981490;28;20046;-80
2021/06/30 04:00:54;;;;;;;3.58;2.50;;;;;;;16.53;100.00;97133.72;4984488;28;20037;-82
2021/06/30 04:03:21;;;;;;;6.10;2.95;;;;;;;16.52;100.00;97134.88;4982045;28;20390;-80
2021/06/30 04:05:52;;;;;;;6.70;3.22;;;;;;;16.53;100.00;97130.19;5001699;28;20492;-81
2021/06/30 04:08:19;;;;;;;6.40;2.90;;;;;;;16.50;100.00;97125.44;5012461;28;20101;-80
2021/06/30 04:10:50;;;;;;;5.55;3.10;;;;;;;16.50;100.00;97119.97;4995305;28;20051;-71
2021/06/30 04:13:21;;;;;;;3.88;2.85;;;;;;;16.47;100.00;97112.50;5011072;28;20382;-73
2021/06/30 04:15:53;;;;;;;2.90;2.53;;;;;;;16.53;100.00;97117.34;5007521;28;20052;-74
2021/06/30 04:18:19;;;;;;;5.75;2.80;;;;;;;16.54;100.00;97118.13;4998405;28;20038;-80
2021/06/30 04:20:53;;;;;;;7.20;2.80;;;;;;;16.48;100.00;97111.34;5001871;28;20509;-81
2021/06/30 04:23:25;;;;;;;8.82;2.83;;;;;;;16.44;100.00;97119.47;4999853;28;20038;-79
2021/06/30 04:25:55;;;;;;;8.48;2.63;;;;;;;16.44;100.00;97116.75;4997160;28;20054;-78
2021/06/30 04:28:30;;;;;;;5.53;3.00;;;;;;;16.42;100.00;97129.19;4997003;28;20065;-80
2021/06/30 04:31:04;;;;;;;4.65;3.03;;;;;;;16.47;100.00;97126.16;4999528;28;20037;-80
2021/06/30 04:33:37;;;;;;;4.35;3.22;;;;;;;16.45;100.00;97125.75;5016824;28;20041;-81
2021/06/30 04:36:09;;;;;;;7.53;3.45;;;;;;;16.44;100.00;97130.41;5015878;28;20050;-79
2021/06/30 04:38:40;;;;;;;10.68;2.95;;;;;;;16.42;100.00;97121.78;5016462;28;20042;-80
2021/06/30 04:41:16;;;;;;;3.55;2.72;;;;;;;16.41;100.00;97127.63;5016695;28;20045;-81
2021/06/30 04:43:47;;;;;;;4.88;2.83;;;;;;;16.43;100.00;97117.13;5004142;28;20045;-81
2021/06/30 04:46:19;;;;;;;6.60;3.17;;;;;;;16.45;100.00;97115.59;5001856;28;20049;-78
2021/06/30 04:48:50;;;;;;;7.53;3.28;;;;;;;16.50;100.00;97096.16;4982331;28;20050;-80
2021/06/30 04:51:17;;;;;;;5.63;3.17;;;;;;;16.51;100.00;97094.22;5016390;28;20052;-81
2021/06/30 04:53:46;;;;;;;8.30;2.83;;;;;;;16.53;100.00;97100.94;4996057;28;20106;-80
2021/06/30 04:56:26;;;;;;;5.47;3.20;;;;;;;16.51;100.00;97097.75;4996920;28;20046;-81
2021/06/30 04:58:58;;;;;;;4.32;3.13;;;;;;;16.51;100.00;97107.88;4998028;28;20338;-82
2021/06/30 05:01:29;;;;;;;7.85;3.30;;;;;;;16.50;100.00;97100.84;5008993;28;20066;-79
2021/06/30 05:03:56;;;;;;;5.15;3.17;;;;;;;16.56;100.00;97102.94;4979732;28;20068;-81
2021/06/30 05:06:27;;;;;;;3.92;2.85;;;;;;;16.59;100.00;97115.09;5007023;28;20035;-78
2021/06/30 05:08:59;;;;;;;3.30;2.65;;;;;;;16.51;100.00;97111.41;4978604;28;20049;-81
2021/06/30 05:11:31;;;;;;;8.45;2.53;;;;;;;16.58;100.00;97111.56;4979191;28;20038;-79
2021/06/30 05:14:03;;;;;;;5.15;2.80;;;;;;;16.62;100.00;97120.59;4981649;28;20406;-80
2021/06/30 05:16:31;;;;;;;8.00;2.55;;;;;;;16.61;100.00;97127.22;4999401;28;20121;-80
2021/06/30 05:19:03;;;;;;;3.53;2.63;;;;;;;16.67;100.00;97122.25;5003065;28;20069;-79
2021/06/30 05:21:35;;;;;;;7.18;2.95;;;;;;;16.71;100.00;97123.06;4999582;28;20173;-80
2021/06/30 05:24:07;;;;;;;4.07;2.78;;;;;;;16.69;100.00;97123.47;4995769;28;20093;-78
2021/06/30 05:26:38;;;;;;;6.05;2.83;;;;;;;16.69;100.00;97128.13;4997444;28;20137;-79
2021/06/30 05:29:05;;;;;;;6.30;2.70;;;;;;;16.82;100.00;97129.50;4976816;28;20057;-80
2021/06/30 05:31:32;;;;;;;6.97;2.78;;;;;;;16.85;100.00;97141.66;4976541;28;20053;-78
2021/06/30 05:33:58;;;;;;;3.30;2.70;;;;;;;16.87;100.00;97136.59;4993607;28;20056;-79
2021/06/30 05:36:30;;;;;;;3.83;2.53;;;;;;;16.84;100.00;97129.91;4992899;28;20049;-78
2021/06/30 05:39:03;;;;;;;4.72;2.38;;;;;;;16.96;100.00;97137.91;4996862;28;20039;-79
2021/06/30 05:41:35;;;;;;;5.45;2.70;;;;;;;16.93;100.00;97124.97;4977525;28;20061;-79
2021/06/30 05:44:09;;;;;;;6.35;2.70;;;;;;;16.96;100.00;97123.44;4981447;28;20052;-79
2021/06/30 05:46:42;;;;;;;3.70;2.33;;;;;;;17.02;100.00;97122.78;5003954;28;20042;-79
2021/06/30 05:49:13;;;;;;;3.22;2.40;;;;;;;17.09;100.00;97128.34;4984399;28;20080;-78
2021/06/30 05:51:45;;;;;;;3.85;2.38;;;;;;;17.09;100.00;97122.88;5000156;28;20069;-80
2021/06/30 05:54:17;;;;;;;5.97;2.70;;;;;;;17.12;100.00;97124.06;4996640;28;20046;-79
2021/06/30 05:56:48;;;;;;;4.55;2.45;;;;;;;17.09;100.00;97114.66;4993702;28;20047;-79
2021/06/30 05:59:22;;;;;;;3.25;2.70;;;;;;;17.18;100.00;97119.88;4993840;28;20061;-78
2021/06/30 06:01:49;;;;;;;6.25;2.65;;;;;;;17.29;100.00;97124.31;4998731;28;20062;-79
2021/06/30 06:04:25;;;;;;;7.75;2.40;;;;;;;17.32;100.00;97125.50;4982619;28;20152;-80
2021/06/30 06:06:57;;;;;;;4.55;2.70;;;;;;;17.28;100.00;97141.91;4981895;28;20657;-79
2021/06/30 06:09:24;;;;;;;3.63;2.60;;;;;;;17.29;100.00;97140.72;5000134;28;20151;-80
2021/06/30 06:11:50;;;;;;;5.35;2.90;;;;;;;17.22;100.00;97142.56;4985731;28;20073;-78
2021/06/30 06:14:17;;;;;;;4.55;2.45;;;;;;;17.29;100.00;97142.69;5002828;28;20042;-79
2021/06/30 06:16:44;;;;;;;5.25;2.20;;;;;;;17.39;100.00;97142.06;5002817;28;20046;-78
2021/06/30 06:19:16;;;;;;;2.97;2.03;;;;;;;17.45;100.00;97149.56;5002605;28;20039;-80
2021/06/30 06:21:48;;;;;;;3.63;2.25;;;;;;;17.34;100.00;97156.06;4995579;28;20072;-78
2021/06/30 06:24:19;;;;;;;3.92;2.08;;;;;;;17.37;100.00;97156.09;4994698;28;20060;-78
2021/06/30 06:26:52;;;;;;;4.78;2.38;;;;;;;17.34;100.00;97148.59;4995924;28;20045;-78
2021/06/30 06:29:24;;;;;;;7.78;2.20;;;;;;;17.29;100.00;97151.66;4979121;28;20383;-79
2021/06/30 06:31:55;;;;;;;3.47;1.75;;;;;;;17.30;100.00;97150.53;4979268;28;20114;-78
2021/06/30 06:34:27;;;;;;;4.72;2.28;;;;;;;17.39;100.00;97150.25;4999926;28;20125;-79
2021/06/30 06:37:01;;;;;;;3.83;1.92;;;;;;;17.50;100.00;97151.16;4992739;28;20042;-79
2021/06/30 06:39:38;;;;;;;3.15;1.90;;;;;;;17.56;100.00;97168.09;4991814;28;20038;-78
2021/06/30 06:42:08;;;;;;;4.32;1.92;;;;;;;17.43;100.00;97145.59;4991782;28;20050;-80
2021/06/30 06:44:37;;;;;;;3.53;1.73;;;;;;;17.50;100.00;97151.16;4992806;28;20057;-81
2021/06/30 06:47:29;;;;;;;4.70;2.00;;;;;;;17.53;100.00;97136.78;4995030;28;20042;-79
2021/06/30 06:50:04;;;;;;;4.63;2.08;;;;;;;17.54;100.00;97119.19;4981015;28;20046;-82
2021/06/30 06:53:00;;;;;;;7.35;2.33;;;;;;;17.63;100.00;97110.69;5012443;28;20054;-82
2021/06/30 06:55:41;;;;;;;10.63;2.47;;;;;;;17.84;100.00;97141.06;5004741;28;20156;-81
2021/06/30 06:59:05;;;;;;;5.07;2.15;;;;;;;17.95;100.00;97133.75;5000164;28;20043;-82
2021/06/30 07:01:48;;;;;;;4.88;2.33;;;;;;;17.99;100.00;97127.16;4936015;28;20057;-78
2021/06/30 07:04:35;;;;;;;4.10;1.98;;;;;;;18.21;100.00;97125.44;4997557;28;20097;-81
2021/06/30 07:07:04;;;;;;;2.33;1.80;;;;;;;18.33;100.00;97138.84;5005166;28;20062;-83
2021/06/30 07:09:38;;;;;;;5.95;1.90;;;;;;;18.26;100.00;97118.81;4992317;28;20057;-82
2021/06/30 07:12:20;;;;;;;3.42;1.73;;;;;;;18.25;100.00;97125.44;5001280;28;20117;-80
2021/06/30 07:14:49;;;;;;;1.80;1.27;;;;;;;18.22;100.00;97120.75;4997169;28;20042;-77
2021/06/30 07:17:18;;;;;;;1.95;1.30;;;;;;;18.21;100.00;97105.44;4997940;28;20124;-78
2021/06/30 07:19:49;;;;;;;3.03;1.27;;;;;;;18.30;100.00;97125.13;4999329;28;20050;-79
2021/06/30 07:22:21;;;;;;;4.82;1.40;;;;;;;18.51;100.00;97134.34;5001084;28;20260;-79
2021/06/30 07:24:56;;;;;;;2.67;1.30;;;;;;;18.22;100.00;97137.94;4995162;28;20386;-80
2021/06/30 07:27:25;;;;;;;2.78;1.40;;;;;;;18.27;100.00;97132.13;4979413;28;20065;-82
2021/06/30 07:29:57;;;;;;;5.00;1.40;;;;;;;18.19;100.00;97127.75;4982927;28;20068;-81
2021/06/30 07:32:26;;;;;;;4.07;1.38;;;;;;;18.27;100.00;97150.53;4976225;28;20489;-82
2021/06/30 07:35:27;;;;;;;3.42;1.25;;;;;;;18.15;100.00;97148.03;5010151;28;20042;-81
2021/06/30 07:42:13;;;;;;;4.82;1.30;;;;;;;17.87;100.00;97127.41;4989808;28;20063;-82
2021/06/30 07:45:00;;;;;;;3.50;1.48;;;;;;;18.09;100.00;97133.13;4996774;28;20061;-82
2021/06/30 07:47:32;;;;;;;2.30;1.30;;;;;;;18.23;100.00;97125.84;5001171;28;20046;-78
2021/06/30 07:50:00;;;;;;;2.70;1.65;;;;;;;18.54;100.00;97128.09;5000798;28;20504;-82
2021/06/30 07:52:28;;;;;;;2.72;1.20;;;;;;;18.76;100.00;97117.31;4983640;28;20047;-82
2021/06/30 07:54:54;;;;;;;3.80;1.10;;;;;;;18.67;100.00;97123.13;5004567;28;20049;-82
2021/06/30 07:57:24;;;;;;;4.60;1.35;;;;;;;18.73;100.00;97123.56;4981969;28;20056;-79
2021/06/30 07:59:51;;;;;;;3.90;1.30;;;;;;;18.97;100.00;97120.22;4999123;28;20060;-80
2021/06/30 08:02:20;;;;;;;3.08;1.40;;;;;;;19.39;100.00;97125.19;5000176;28;20422;-82
2021/06/30 08:04:46;;;;;;;3.88;1.17;;;;;;;19.63;100.00;97121.78;4996393;28;20066;-80
2021/06/30 08:07:18;;;;;;;3.92;1.13;;;;;;;19.77;100.00;97130.84;4997856;28;20410;-83
2021/06/30 08:09:44;;;;;;;1.52;1.10;;;;;;;19.75;100.00;97130.47;4996479;28;20517;-79
2021/06/30 08:12:11;;;;;;;2.95;1.33;;;;;;;19.63;100.00;97130.00;4995696;28;20062;-82
2021/06/30 08:14:38;;;;;;;6.28;1.30;;;;;;;19.50;100.00;97129.56;4995919;28;20070;-81
2021/06/30 08:17:04;;;;;;;2.60;1.20;;;;;;;19.55;100.00;97128.41;4995195;28;20060;-80
2021/06/30 08:19:34;;;;;;;5.13;1.40;;;;;;;19.40;100.00;97121.28;4997549;28;20049;-80
2021/06/30 08:22:12;;;;;;;4.88;1.30;;;;;;;19.37;100.00;97122.84;4978872;28;20150;-81
2021/06/30 08:24:41;;;;;;;3.53;1.42;;;;;;;19.51;100.00;97130.34;4996112;28;20085;-80
2021/06/30 08:27:08;;;;;;;3.97;1.20;;;;;;;19.56;100.00;97135.47;5000884;28;20054;-81
2021/06/30 08:29:37;;;;;;;4.47;1.02;;;;;;;19.49;100.00;97129.94;5001983;28;20042;-82
2021/06/30 08:32:05;;;;;;;1.77;1.10;;;;;;;19.79;100.00;97139.50;5000542;28;20043;-80
2021/06/30 08:34:37;;;;;;;1.55;1.20;;;;;;;19.65;100.00;97125.72;5001020;28;20042;-80
2021/06/30 08:37:10;;;;;;;5.95;1.25;;;;;;;19.77;100.00;97138.28;5002641;28;20118;-84
2021/06/30 08:39:43;;;;;;;2.40;1.10;;;;;;;20.15;100.00;97136.88;5006064;28;20126;-85
2021/06/30 08:42:31;;;;;;;2.60;1.27;;;;;;;20.23;100.00;97139.28;4988434;28;20073;-85
2021/06/30 08:45:04;;;;;;;5.13;1.40;;;;;;;20.44;100.00;97141.28;4997319;28;20046;-81
2021/06/30 08:47:36;;;;;;;3.90;1.10;;;;;;;20.68;100.00;97142.44;5001740;28;20045;-85
2021/06/30 08:50:10;;;;;;;2.55;1.10;;;;;;;20.95;100.00;97138.94;5003975;28;20046;-82
2021/06/30 08:52:52;;;;;;;1.35;1.00;;;;;;;20.93;100.00;97138.50;5000061;28;20061;-84
2021/06/30 08:58:30;;;;;;;1.85;1.00;;;;;;;20.70;100.00;97151.13;5002065;28;20069;-85
2021/06/30 09:01:02;;;;;;;3.78;1.50;;;;;;;20.68;100.00;97146.00;5002698;28;20116;-84
2021/06/30 09:03:33;;;;;;;4.38;1.30;;;;;;;20.11;100.00;97145.09;4999038;28;20050;-82
2021/06/30 09:06:11;;;;;;;4.35;1.27;;;;;;;20.04;100.00;97147.03;4998685;28;20054;-82
2021/06/30 09:08:51;;;;;;;4.47;1.17;;;;;;;19.92;100.00;97158.38;4982994;28;20050;-83
2021/06/30 09:11:27;;;;;;;4.13;1.20;;;;;;;19.52;100.00;97145.66;4980068;28;20116;-83
2021/06/30 09:14:24;;;;;;;2.63;1.20;;;;;;;19.72;100.00;97172.41;4996253;28;20509;-82
2021/06/30 09:17:18;;;;;;;2.67;1.40;;;;;;;19.70;100.00;97172.03;4997840;28;20138;-85
2021/06/30 09:19:46;;;;;;;4.43;1.48;;;;;;;19.69;100.00;97170.44;4998922;28;20061;-82
2021/06/30 09:22:27;;;;;;;3.67;1.20;;;;;;;19.83;100.00;97158.75;4987565;28;20089;-85
2021/06/30 09:25:00;;;;;;;3.33;1.27;;;;;;;19.82;100.00;97173.66;5000350;28;20046;-84
2021/06/30 09:27:47;;;;;;;3.60;1.30;;;;;;;19.55;100.00;97162.16;4986781;28;20112;-83
2021/06/30 09:30:15;;;;;;;2.30;1.25;;;;;;;19.78;100.00;97195.63;5001038;28;20034;-83
2021/06/30 09:33:12;;;;;;;5.68;1.50;;;;;;;19.66;100.00;97156.72;4985043;28;20125;-85
2021/06/30 09:35:38;;;;;;;5.90;1.80;;;;;;;19.66;100.00;97181.44;4958086;28;20085;-83
2021/06/30 09:38:46;;;;;;;3.70;1.42;;;;;;;19.86;100.00;97172.50;5003005;28;20128;-81
2021/06/30 09:41:30;;;;;;;1.42;1.30;;;;;;;19.84;100.00;97177.59;5001608;28;20046;-84
2021/06/30 09:44:21;;;;;;;3.63;1.50;;;;;;;19.79;100.00;97190.91;5003045;28;20082;-85
2021/06/30 09:46:53;;;;;;;2.38;1.40;;;;;;;19.75;100.00;97177.16;5003817;28;20050;-85
2021/06/30 09:49:37;;;;;;;2.63;1.30;;;;;;;19.85;100.00;97173.66;4985789;28;20046;-84
2021/06/30 09:52:23;;;;;;;2.88;1.27;;;;;;;19.75;100.00;97166.16;4984646;28;20078;-80
2021/06/30 09:54:52;;;;;;;9.98;1.52;;;;;;;19.85;100.00;97176.41;5002890;28;20050;-83
2021/06/30 09:57:21;;;;;;;6.53;1.67;;;;;;;20.01;100.00;97175.28;5003507;28;20046;-83
2021/06/30 10:00:11;;;;;;;4.57;1.45;;;;;;;20.18;100.00;97188.31;4982501;28;20119;-83
2021/06/30 10:02:49;;;;;;;3.70;1.73;;;;;;;20.28;100.00;97196.63;4999186;28;20047;-83
2021/06/30 10:05:44;;;;;;;4.03;1.67;;;;;;;20.73;100.00;97189.63;5000597;28;20450;-83
2021/06/30 10:08:46;;;;;;;3.00;1.52;;;;;;;20.68;100.00;97165.25;4978679;28;20054;-83
2021/06/30 10:11:31;;;;;;;3.88;1.30;;;;;;;21.41;100.00;97182.16;4991049;28;20109;-82
2021/06/30 10:14:06;;;;;;;2.13;1.15;;;;;;;21.65;100.00;97184.06;5001389;28;20050;-84
2021/06/30 10:16:41;;;;;;;4.80;1.23;;;;;;;21.22;100.00;97182.56;5001338;28;20054;-84
2021/06/30 10:19:27;;;;;;;5.03;1.30;;;;;;;21.13;100.00;97190.44;4984878;28;20125;-83
2021/06/30 10:22:09;;;;;;;1.95;1.10;;;;;;;21.31;100.00;97175.50;4986066;28;20050;-83
2021/06/30 10:24:41;;;;;;;2.53;1.10;;;;;;;21.07;100.00;97190.84;4984957;28;20117;-83
2021/06/30 10:27:18;;;;;;;2.13;1.17;;;;;;;21.13;100.00;97191.25;4997030;28;20046;-85
2021/06/30 10:30:11;;;;;;;2.55;1.00;;;;;;;20.73;100.00;97175.06;4999570;28;20043;-83
2021/06/30 10:33:25;;;;;;;2.33;1.08;;;;;;;21.05;100.00;97189.63;5001367;28;20046;-85
2021/06/30 10:35:54;;;;;;;5.15;1.33;;;;;;;20.90;100.00;97190.81;4985177;28;20109;-83
2021/06/30 10:38:39;;;;;;;5.93;1.20;;;;;;;20.67;100.00;97180.19;4986664;28;20050;-85
2021/06/30 10:41:38;;;;;;;2.15;1.00;;;;;;;20.29;100.00;97191.88;4984214;28;20050;-83
2021/06/30 10:44:24;;;;;;;5.45;1.17;;;;;;;19.98;100.00;97190.59;4981523;28;20050;-80
2021/06/30 10:46:53;;;;;;;3.28;1.10;;;;;;;19.50;100.00;97213.91;4999934;28;20052;-83
2021/06/30 10:49:22;;;;;;;9.38;1.05;;;;;;;19.21;100.00;97199.16;4983562;28;20050;-81
2021/06/30 10:51:58;;;;;;;3.58;1.20;;;;;;;18.96;100.00;97198.97;5002362;28;20046;-82
2021/06/30 10:54:50;;;;;;;4.15;1.10;;;;;;;18.92;100.00;97214.59;5002048;28;20098;-86
2021/06/30 10:57:34;;;;;;;3.90;1.10;;;;;;;18.81;100.00;97200.03;5002104;28;20050;-85
2021/06/30 11:00:43;;;;;;;3.10;0.95;;;;;;;19.03;100.00;97196.28;5003037;28;20061;-83
2021/06/30 11:03:39;;;;;;;2.33;0.90;;;;;;;19.55;100.00;97199.81;5002821;28;20134;-82
2021/06/30 11:07:15;;;;;;;4.47;1.00;;;;;;;20.03;100.00;97192.97;4985855;28;20058;-84
2021/06/30 11:09:47;;;;;;;3.88;1.00;;;;;;;23.46;100.00;97182.56;4981092;28;20085;-83
2021/06/30 11:12:19;;;;;;;3.10;0.90;;;;;;;25.33;100.00;97188.34;5005311;28;20062;-83
2021/06/30 11:15:06;;;;;;;0.93;0.68;;;;;;;26.04;100.00;97177.94;4987745;28;20050;-82
2021/06/30 11:17:37;;;;;;;1.63;0.73;;;;;;;26.00;100.00;97173.25;4997566;28;20135;-83
2021/06/30 11:20:04;;;;;;;4.22;0.90;;;;;;;24.65;100.00;97179.53;4982328;28;20145;-85
2021/06/30 11:22:32;;;;;;;2.40;1.10;;;;;;;22.92;100.00;97177.91;5001425;28;20561;-81
2021/06/30 11:25:02;;;;;;;2.75;0.95;;;;;;;22.06;100.00;97184.34;5001284;28;20042;-82
2021/06/30 11:27:38;;;;;;;3.78;0.93;;;;;;;21.55;100.00;97199.44;5006165;28;20050;-80
2021/06/30 11:30:08;;;;;;;2.60;1.00;;;;;;;21.33;100.00;97197.91;4988339;28;20049;-83
2021/06/30 11:32:36;;;;;;;3.50;1.00;;;;;;;21.50;100.00;97194.31;5001000;28;20038;-80
2021/06/30 11:35:12;;;;;;;1.85;1.02;;;;;;;21.30;100.00;97189.63;4989000;28;20043;-83
2021/06/30 11:37:54;;;;;;;3.08;1.10;;;;;;;21.01;100.00;97200.63;5002544;28;20066;-83
2021/06/30 11:40:25;;;;;;;2.05;0.93;;;;;;;20.64;100.00;97200.22;5001185;28;20466;-83
2021/06/30 11:42:53;;;;;;;2.63;1.10;;;;;;;20.24;100.00;97195.81;5001596;28;20046;-83
2021/06/30 11:45:36;;;;;;;5.05;1.10;;;;;;;20.03;100.00;97197.69;4986778;28;20081;-82
2021/06/30 11:48:11;;;;;;;1.90;0.90;;;;;;;19.85;100.00;97198.38;5001607;28;20054;-84
2021/06/30 11:51:01;;;;;;;3.08;0.80;;;;;;;19.86;100.00;97208.22;5002845;28;20206;-81
2021/06/30 11:53:54;;;;;;;2.25;0.90;;;;;;;20.10;100.00;97203.22;5003376;28;20069;-82
2021/06/30 11:56:24;;;;;;;3.13;0.73;;;;;;;20.98;100.00;97203.41;5002159;28;20137;-83
2021/06/30 11:58:52;;;;;;;1.50;0.90;;;;;;;22.42;100.00;97187.69;5006642;28;20109;-85
2021/06/30 12:01:27;;;;;;;3.83;0.80;;;;;;;22.18;100.00;97192.94;5009017;28;20048;-84
2021/06/30 12:04:11;;;;;;;2.65;0.70;;;;;;;22.91;100.00;97170.81;5005551;28;20153;-84